Bosporus Highway — 3EXG9 — position and weather

sailwx.info

Track history (hours):
 
Tides and Currents Weather Stations Pressure Air Temp Water Temp Dewpoint Dewpoint Depression Visibility Wind Speed Wind Dir Waves Ship Positions

Bosporus Highway

Last reported at 2018-Feb-17 15:52 UTC. Time now 2018-Feb-21 03:29 UTC.
Position N 37°10' W 029°11'.

Length 199 m; draft 9.5 m.

Type: Cargo ship. MMSI: 372981000.

Date/timePositionNaut miles runAvg speedWind from/ knotsBaromVisibWave heightAir tempDewpointWater temp
2018-Feb-17 15:52N 37°10' W 029°11'718.3
2018-Feb-17 15:30N 37°12' W 029°03'918.3
2018-Feb-17 15:00N 37°15' W 028°52'917.8
2018-Feb-17 14:31N 37°17' W 028°42'917.8
2018-Feb-17 14:00N 37°20' W 028°31'918.0
2018-Feb-17 13:30N 37°23' W 028°20'917.6
2018-Feb-17 13:01N 37°26' W 028°10'713.2
2018-Feb-17 12:30N 37°28' W 028°02'1 1.4
2018-Feb-17 12:00N 37°28' W 028°01'1 1.7
2018-Feb-17 11:30N 37°29' W 028°01'612.0
2018-Feb-17 11:00N 37°31' W 027°54'917.5
2018-Feb-17 10:30N 37°34' W 027°44'917.7
2018-Feb-17 10:00N 37°37' W 027°33'917.3
2018-Feb-17 09:30N 37°40' W 027°23'917.5
2018-Feb-17 09:01N 37°43' W 027°13'917.5
2018-Feb-17 08:30N 37°46' W 027°02'917.7
2018-Feb-17 08:00N 37°50' W 026°52'917.4
2018-Feb-17 07:30N 37°53' W 026°42'917.3
2018-Feb-17 07:00N 37°57' W 026°32'917.3
2018-Feb-17 06:30N 38°00' W 026°22'917.5
2018-Feb-17 06:00N 38°04' W 026°12'917.4
2018-Feb-17 05:30N 38°08' W 026°02'917.2
2018-Feb-17 05:00N 38°11' W 025°52'917.4
2018-Feb-17 04:30N 38°15' W 025°42'917.4
2018-Feb-17 04:00N 38°18' W 025°32'917.3
2018-Feb-17 03:30N 38°22' W 025°22'917.8
2018-Feb-17 03:00N 38°26' W 025°11'917.3
2018-Feb-17 02:30N 38°29' W 025°01'917.5
2018-Feb-17 02:00N 38°33' W 024°51'917.4
2018-Feb-17 01:30N 38°37' W 024°41'917.5
2018-Feb-17 01:00N 38°40' W 024°31'917.6
2018-Feb-17 00:30N 38°44' W 024°21'917.5
2018-Feb-16 23:59N 38°48' W 024°10'  
2018-Feb-14 12:57N 47°42' W 007°06'2114.9
2018-Feb-14 11:34N 47°59' W 006°48'115.4
2018-Feb-14 11:29N 47°60' W 006°47'16714.6
2018-Feb-14 00:01N 49°46' W 003°31'217.2
2018-Feb-13 23:54N 49°47' W 003°28'717.2
2018-Feb-13 23:30N 49°51' W 003°18'817.3
2018-Feb-13 23:00N 49°55' W 003°07'816.9
2018-Feb-13 22:30N 49°58' W 002°55'816.6
2018-Feb-13 22:00N 50°02' W 002°43'916.0
2018-Feb-13 21:28N 50°05' W 002°31'815.1
2018-Feb-13 20:55N 50°07' W 002°18'614.0
2018-Feb-13 20:27N 50°09' W 002°09'613.5
2018-Feb-13 20:00N 50°11' W 001°60'713.2
2018-Feb-13 19:30N 50°14' W 001°50'713.4
2018-Feb-13 19:00N 50°17' W 001°41'713.7
2018-Feb-13 18:30N 50°21' W 001°33'1114.2
2018-Feb-13 17:45N 50°27' W 001°19'514.3
2018-Feb-13 17:26N 50°29' W 001°12'714.9
2018-Feb-13 16:59N 50°33' W 001°04'713.9
2018-Feb-13 16:29N 50°38' W 000°55'5 9.9
2018-Feb-13 16:00N 50°42' W 000°57'612.8
2018-Feb-13 15:30N 50°45' W 001°06'713.5
2018-Feb-13 15:00N 50°46' W 001°17'4 7.4
2018-Feb-13 14:30N 50°50' W 001°19'4 8.6
2018-Feb-13 14:00N 50°53' W 001°24'1 1.2
2018-Feb-13 13:29N 50°53' W 001°24'0 0.0
2018-Feb-13 12:59N 50°53' W 001°24'0 0.0
2018-Feb-13 12:29N 50°53' W 001°24'0 0.0
2018-Feb-13 11:59N 50°53' W 001°24'0 0.0
2018-Feb-13 11:29N 50°53' W 001°24'0 0.0
2018-Feb-13 10:59N 50°53' W 001°24'0 0.0
2018-Feb-13 10:29N 50°53' W 001°24'0 0.0
2018-Feb-13 09:59N 50°53' W 001°24'0 0.0
2018-Feb-13 09:29N 50°53' W 001°24'0 0.0
2018-Feb-13 08:59N 50°53' W 001°24'0 0.0
2018-Feb-13 08:29N 50°53' W 001°24'0 0.0
2018-Feb-13 07:59N 50°53' W 001°24'0 0.0
2018-Feb-13 07:29N 50°53' W 001°24'0 0.0
2018-Feb-13 06:59N 50°53' W 001°24'0 0.0
2018-Feb-13 06:29N 50°53' W 001°24'0 0.0
2018-Feb-13 05:59N 50°53' W 001°24'0 0.0
2018-Feb-13 05:29N 50°53' W 001°24'0 0.0
2018-Feb-13 04:59N 50°53' W 001°24'0 0.0
2018-Feb-13 04:26N 50°53' W 001°24'0 0.0
2018-Feb-13 03:59N 50°53' W 001°24'0 0.0
2018-Feb-13 03:29N 50°53' W 001°24'0 0.0
2018-Feb-13 02:59N 50°53' W 001°24'0 0.0
2018-Feb-13 02:29N 50°53' W 001°24'0 0.0
2018-Feb-13 01:59N 50°53' W 001°24'0 0.0
2018-Feb-13 01:29N 50°53' W 001°24'0 0.4
2018-Feb-13 01:00N 50°53' W 001°24'3 7.0
2018-Feb-13 00:31N 50°51' W 001°20'4 8.8
2018-Feb-13 00:01N 50°47' W 001°18'714.5
2018-Feb-12 23:30N 50°45' W 001°07'713.8
2018-Feb-12 23:01N 50°42' W 000°58'3 6.8
2018-Feb-12 22:30N 50°38' W 001°00'1 1.0
2018-Feb-12 21:59N 50°38' W 001°01'0 0.1
2018-Feb-12 21:29N 50°38' W 001°01'0 0.0
2018-Feb-12 20:59N 50°38' W 001°01'0 0.1
2018-Feb-12 20:29N 50°38' W 001°01'0 0.1
2018-Feb-12 19:59N 50°38' W 001°01'0 0.1
2018-Feb-12 19:29N 50°38' W 001°01'0 0.1
2018-Feb-12 18:59N 50°38' W 001°01'0 0.0
2018-Feb-12 18:29N 50°38' W 001°01'0 0.0
2018-Feb-12 17:59N 50°38' W 001°01'0 0.0
2018-Feb-12 17:29N 50°38' W 001°01'0 0.1
2018-Feb-12 16:59N 50°38' W 001°01'0 0.1
2018-Feb-12 16:29N 50°38' W 001°01'0 0.1
2018-Feb-12 15:59N 50°38' W 001°01'0 0.1
2018-Feb-12 15:29N 50°38' W 001°01'0 0.0
2018-Feb-12 14:59N 50°38' W 001°01'0 0.0
2018-Feb-12 14:29N 50°38' W 001°01'0 0.2
2018-Feb-12 13:59N 50°38' W 001°01'0 0.1
2018-Feb-12 13:29N 50°38' W 001°01'0 0.0
2018-Feb-12 12:59N 50°38' W 001°01'0 0.0
2018-Feb-12 12:30N 50°38' W 001°01'0 0.2
2018-Feb-12 11:59N 50°38' W 001°01'0 0.1
2018-Feb-12 11:29N 50°38' W 001°01'0 0.3
2018-Feb-12 10:59N 50°38' W 001°01'0 0.1
2018-Feb-12 10:29N 50°38' W 001°01'0 0.3
2018-Feb-12 09:59N 50°38' W 001°01'0 0.1
2018-Feb-12 09:29N 50°38' W 001°01'0 0.1
2018-Feb-12 08:59N 50°38' W 001°01'0 0.0
2018-Feb-12 08:29N 50°38' W 001°01'0 0.0
2018-Feb-12 07:59N 50°38' W 001°01'0 0.0
2018-Feb-12 07:29N 50°38' W 001°01'0 0.0
2018-Feb-12 06:59N 50°38' W 001°01'0 0.0
2018-Feb-12 06:29N 50°38' W 001°01'0 0.0
2018-Feb-12 05:59N 50°38' W 001°01'0 0.0
2018-Feb-12 05:29N 50°38' W 001°01'0 0.0
2018-Feb-12 05:00N 50°38' W 001°01'0 0.0
2018-Feb-12 04:30N 50°38' W 001°01'0 0.0
2018-Feb-12 03:59N 50°38' W 001°01'0 0.0
2018-Feb-12 03:29N 50°38' W 001°00'0 0.1
2018-Feb-12 02:59N 50°38' W 001°01'0 0.1
2018-Feb-12 02:30N 50°38' W 001°01'0 0.0
2018-Feb-12 01:59N 50°38' W 001°01'0 0.0
2018-Feb-12 01:29N 50°38' W 001°01'0 0.0
2018-Feb-12 00:59N 50°38' W 001°01'0 0.1
2018-Feb-12 00:30N 50°38' W 001°01'0 0.0
2018-Feb-11 23:59N 50°38' W 001°01'0 0.1
2018-Feb-11 23:29N 50°38' W 001°01'0 0.9
2018-Feb-11 23:01N 50°38' W 000°60'4 7.5
2018-Feb-11 22:30N 50°37' W 000°54'713.4
2018-Feb-11 22:00N 50°35' W 000°44'815.4
2018-Feb-11 21:30N 50°33' W 000°32'815.2
2018-Feb-11 20:58N 50°32' W 000°19'714.9
2018-Feb-11 20:30N 50°32' W 000°09'714.4
2018-Feb-11 20:00N 50°33' E 000°02'714.4
2018-Feb-11 19:30N 50°35' E 000°13'714.3
2018-Feb-11 19:00N 50°37' E 000°24'714.3
2018-Feb-11 18:31N 50°39' E 000°35'714.7
2018-Feb-11 18:00N 50°42' E 000°46'814.9
2018-Feb-11 17:30N 50°45' E 000°56'815.4
2018-Feb-11 17:00N 50°49' E 001°07'815.9
2018-Feb-11 16:30N 50°54' E 001°17'917.1
2018-Feb-11 16:01N 51°00' E 001°25'917.1
2018-Feb-11 15:30N 51°06' E 001°36'816.8
2018-Feb-11 15:00N 51°12' E 001°45'816.2
2018-Feb-11 14:30N 51°19' E 001°52'815.3
2018-Feb-11 14:00N 51°25' E 001°59'714.6
2018-Feb-11 13:30N 51°31' E 002°06'714.3
2018-Feb-11 13:01N 51°36' E 002°13'713.9
2018-Feb-11 12:30N 51°42' E 002°20'10513.8
2018-Feb-11 04:51N 53°04' E 004°09'512.8
2018-Feb-11 04:28N 53°06' E 004°16'612.4
2018-Feb-11 03:58N 53°11' E 004°23'712.1
2018-Feb-11 03:26N 53°16' E 004°30'12812.8
2018-Feb-10 17:27N 53°52' E 007°56'512.3
2018-Feb-10 17:00N 53°50' E 008°04'613.0
2018-Feb-10 16:30N 53°45' E 008°12'712.9
2018-Feb-10 16:00N 53°42' E 008°21'613.1
2018-Feb-10 15:30N 53°37' E 008°29'4 8.0
2018-Feb-10 15:00N 53°34' E 008°33'0 0.8
2018-Feb-10 14:30N 53°34' E 008°33'0 0.7
2018-Feb-10 13:59N 53°35' E 008°33'0 0.0
2018-Feb-10 13:29N 53°35' E 008°33'0 0.0
2018-Feb-10 12:56N 53°35' E 008°33'0 0.0
2018-Feb-10 12:29N 53°35' E 008°33'0 0.0
2018-Feb-10 11:59N 53°35' E 008°33'0 0.0
2018-Feb-10 11:29N 53°35' E 008°33'0 0.0
2018-Feb-10 10:59N 53°35' E 008°33'0 0.0
2018-Feb-10 10:29N 53°35' E 008°33'0 0.0
2018-Feb-10 09:59N 53°35' E 008°33'0 0.0
2018-Feb-10 09:29N 53°35' E 008°33'0 0.0
2018-Feb-10 08:59N 53°35' E 008°33'0 0.0
2018-Feb-10 08:29N 53°35' E 008°33'0 0.0
2018-Feb-10 07:59N 53°35' E 008°33'0 0.0
2018-Feb-10 07:29N 53°35' E 008°33'0 0.0
2018-Feb-10 06:59N 53°35' E 008°33'0 0.0
2018-Feb-10 06:29N 53°35' E 008°33'0 0.0
2018-Feb-10 05:59N 53°35' E 008°33'0 0.0
2018-Feb-10 05:29N 53°35' E 008°33'0 0.0
2018-Feb-10 04:59N 53°35' E 008°33'0 0.0
2018-Feb-10 04:29N 53°35' E 008°33'0 0.0
2018-Feb-10 03:59N 53°35' E 008°33'0 0.0
2018-Feb-10 03:29N 53°35' E 008°33'0 0.0
2018-Feb-10 02:59N 53°35' E 008°33'0 0.0
2018-Feb-10 02:29N 53°35' E 008°33'0 0.0
2018-Feb-10 01:59N 53°35' E 008°33'0 0.0
2018-Feb-10 01:29N 53°35' E 008°33'0 0.0
2018-Feb-10 00:59N 53°35' E 008°33'0 0.0
2018-Feb-10 00:29N 53°35' E 008°33'0 0.0
2018-Feb-09 23:59N 53°35' E 008°33'0 0.0
2018-Feb-09 23:29N 53°35' E 008°33'0 0.0
2018-Feb-09 22:59N 53°35' E 008°33'0 0.0
2018-Feb-09 22:44N 53°35' E 008°33'0 0.1
2018-Feb-09 19:00N 53°34' E 008°33'2 2.1
2018-Feb-09 18:00N 53°36' E 008°31'2214.8
2018-Feb-09 16:30N 53°50' E 008°03'18715.6
2018-Feb-09 04:30N 52°22' E 003°28'5916.8
2018-Feb-09 01:00N 51°31' E 002°42'10 9.8
2018-Feb-09 00:00N 51°25' E 002°54'13 8.4
2018-Feb-08 22:30N 51°20' E 003°13'0 0.5
2018-Feb-08 22:00N 51°20' E 003°13'2 0.1
2018-Feb-08 01:28N 51°18' E 003°14'0 0.0
2018-Feb-08 00:58N 51°18' E 003°14'0 0.0
2018-Feb-08 00:28N 51°18' E 003°14'0 0.0
2018-Feb-07 23:58N 51°18' E 003°14'0 0.0
2018-Feb-07 23:28N 51°18' E 003°14'0 0.0
2018-Feb-07 22:58N 51°18' E 003°14'0 0.0
2018-Feb-07 22:28N 51°18' E 003°14'0 0.0
2018-Feb-07 21:58N 51°18' E 003°14'0 0.0
2018-Feb-07 21:31N 51°18' E 003°14'  
Track history (hours):
 
Tides and Currents Weather Stations Pressure Air Temp Water Temp Dewpoint Dewpoint Depression Visibility Wind Speed Wind Dir Waves Ship Positions

Bosporus Highway

Last reported at 2018-Feb-17 15:52 UTC. Time now 2018-Feb-21 03:29 UTC.
Position N 37°10' W 029°11'.

Length 199 m; draft 9.5 m.

Type: Cargo ship. MMSI: 372981000.

Date/timePositionNaut miles runAvg speedWind from/ knotsBaromVisibWave heightAir tempDewpointWater temp
2018-Feb-17 15:52N 37°10' W 029°11'718.3
2018-Feb-17 15:30N 37°12' W 029°03'918.3
2018-Feb-17 15:00N 37°15' W 028°52'917.8
2018-Feb-17 14:31N 37°17' W 028°42'917.8
2018-Feb-17 14:00N 37°20' W 028°31'918.0
2018-Feb-17 13:30N 37°23' W 028°20'917.6
2018-Feb-17 13:01N 37°26' W 028°10'713.2
2018-Feb-17 12:30N 37°28' W 028°02'1 1.4
2018-Feb-17 12:00N 37°28' W 028°01'1 1.7
2018-Feb-17 11:30N 37°29' W 028°01'612.0
2018-Feb-17 11:00N 37°31' W 027°54'917.5
2018-Feb-17 10:30N 37°34' W 027°44'917.7
2018-Feb-17 10:00N 37°37' W 027°33'917.3
2018-Feb-17 09:30N 37°40' W 027°23'917.5
2018-Feb-17 09:01N 37°43' W 027°13'917.5
2018-Feb-17 08:30N 37°46' W 027°02'917.7
2018-Feb-17 08:00N 37°50' W 026°52'917.4
2018-Feb-17 07:30N 37°53' W 026°42'917.3
2018-Feb-17 07:00N 37°57' W 026°32'917.3
2018-Feb-17 06:30N 38°00' W 026°22'917.5
2018-Feb-17 06:00N 38°04' W 026°12'917.4
2018-Feb-17 05:30N 38°08' W 026°02'917.2
2018-Feb-17 05:00N 38°11' W 025°52'917.4
2018-Feb-17 04:30N 38°15' W 025°42'917.4
2018-Feb-17 04:00N 38°18' W 025°32'917.3
2018-Feb-17 03:30N 38°22' W 025°22'917.8
2018-Feb-17 03:00N 38°26' W 025°11'917.3
2018-Feb-17 02:30N 38°29' W 025°01'917.5
2018-Feb-17 02:00N 38°33' W 024°51'917.4
2018-Feb-17 01:30N 38°37' W 024°41'917.5
2018-Feb-17 01:00N 38°40' W 024°31'917.6
2018-Feb-17 00:30N 38°44' W 024°21'917.5
2018-Feb-16 23:59N 38°48' W 024°10'  
2018-Feb-14 12:57N 47°42' W 007°06'2114.9
2018-Feb-14 11:34N 47°59' W 006°48'115.4
2018-Feb-14 11:29N 47°60' W 006°47'16714.6
2018-Feb-14 00:01N 49°46' W 003°31'217.2
2018-Feb-13 23:54N 49°47' W 003°28'717.2
2018-Feb-13 23:30N 49°51' W 003°18'817.3
2018-Feb-13 23:00N 49°55' W 003°07'816.9
2018-Feb-13 22:30N 49°58' W 002°55'816.6
2018-Feb-13 22:00N 50°02' W 002°43'916.0
2018-Feb-13 21:28N 50°05' W 002°31'815.1
2018-Feb-13 20:55N 50°07' W 002°18'614.0
2018-Feb-13 20:27N 50°09' W 002°09'613.5
2018-Feb-13 20:00N 50°11' W 001°60'713.2
2018-Feb-13 19:30N 50°14' W 001°50'713.4
2018-Feb-13 19:00N 50°17' W 001°41'713.7
2018-Feb-13 18:30N 50°21' W 001°33'1114.2
2018-Feb-13 17:45N 50°27' W 001°19'514.3
2018-Feb-13 17:26N 50°29' W 001°12'714.9
2018-Feb-13 16:59N 50°33' W 001°04'713.9
2018-Feb-13 16:29N 50°38' W 000°55'5 9.9
2018-Feb-13 16:00N 50°42' W 000°57'612.8
2018-Feb-13 15:30N 50°45' W 001°06'713.5
2018-Feb-13 15:00N 50°46' W 001°17'4 7.4
2018-Feb-13 14:30N 50°50' W 001°19'4 8.6
2018-Feb-13 14:00N 50°53' W 001°24'1 1.2
2018-Feb-13 13:29N 50°53' W 001°24'0 0.0
2018-Feb-13 12:59N 50°53' W 001°24'0 0.0
2018-Feb-13 12:29N 50°53' W 001°24'0 0.0
2018-Feb-13 11:59N 50°53' W 001°24'0 0.0
2018-Feb-13 11:29N 50°53' W 001°24'0 0.0
2018-Feb-13 10:59N 50°53' W 001°24'0 0.0
2018-Feb-13 10:29N 50°53' W 001°24'0 0.0
2018-Feb-13 09:59N 50°53' W 001°24'0 0.0
2018-Feb-13 09:29N 50°53' W 001°24'0 0.0
2018-Feb-13 08:59N 50°53' W 001°24'0 0.0
2018-Feb-13 08:29N 50°53' W 001°24'0 0.0
2018-Feb-13 07:59N 50°53' W 001°24'0 0.0
2018-Feb-13 07:29N 50°53' W 001°24'0 0.0
2018-Feb-13 06:59N 50°53' W 001°24'0 0.0
2018-Feb-13 06:29N 50°53' W 001°24'0 0.0
2018-Feb-13 05:59N 50°53' W 001°24'0 0.0
2018-Feb-13 05:29N 50°53' W 001°24'0 0.0
2018-Feb-13 04:59N 50°53' W 001°24'0 0.0
2018-Feb-13 04:26N 50°53' W 001°24'0 0.0
2018-Feb-13 03:59N 50°53' W 001°24'0 0.0
2018-Feb-13 03:29N 50°53' W 001°24'0 0.0
2018-Feb-13 02:59N 50°53' W 001°24'0 0.0
2018-Feb-13 02:29N 50°53' W 001°24'0 0.0
2018-Feb-13 01:59N 50°53' W 001°24'0 0.0
2018-Feb-13 01:29N 50°53' W 001°24'0 0.4
2018-Feb-13 01:00N 50°53' W 001°24'3 7.0
2018-Feb-13 00:31N 50°51' W 001°20'4 8.8
2018-Feb-13 00:01N 50°47' W 001°18'714.5
2018-Feb-12 23:30N 50°45' W 001°07'713.8
2018-Feb-12 23:01N 50°42' W 000°58'3 6.8
2018-Feb-12 22:30N 50°38' W 001°00'1 1.0
2018-Feb-12 21:59N 50°38' W 001°01'0 0.1
2018-Feb-12 21:29N 50°38' W 001°01'0 0.0
2018-Feb-12 20:59N 50°38' W 001°01'0 0.1
2018-Feb-12 20:29N 50°38' W 001°01'0 0.1
2018-Feb-12 19:59N 50°38' W 001°01'0 0.1
2018-Feb-12 19:29N 50°38' W 001°01'0 0.1
2018-Feb-12 18:59N 50°38' W 001°01'0 0.0
2018-Feb-12 18:29N 50°38' W 001°01'0 0.0
2018-Feb-12 17:59N 50°38' W 001°01'0 0.0
2018-Feb-12 17:29N 50°38' W 001°01'0 0.1
2018-Feb-12 16:59N 50°38' W 001°01'0 0.1
2018-Feb-12 16:29N 50°38' W 001°01'0 0.1
2018-Feb-12 15:59N 50°38' W 001°01'0 0.1
2018-Feb-12 15:29N 50°38' W 001°01'0 0.0
2018-Feb-12 14:59N 50°38' W 001°01'0 0.0
2018-Feb-12 14:29N 50°38' W 001°01'0 0.2
2018-Feb-12 13:59N 50°38' W 001°01'0 0.1
2018-Feb-12 13:29N 50°38' W 001°01'0 0.0
2018-Feb-12 12:59N 50°38' W 001°01'0 0.0
2018-Feb-12 12:30N 50°38' W 001°01'0 0.2
2018-Feb-12 11:59N 50°38' W 001°01'0 0.1
2018-Feb-12 11:29N 50°38' W 001°01'0 0.3
2018-Feb-12 10:59N 50°38' W 001°01'0 0.1
2018-Feb-12 10:29N 50°38' W 001°01'0 0.3
2018-Feb-12 09:59N 50°38' W 001°01'0 0.1
2018-Feb-12 09:29N 50°38' W 001°01'0 0.1
2018-Feb-12 08:59N 50°38' W 001°01'0 0.0
2018-Feb-12 08:29N 50°38' W 001°01'0 0.0
2018-Feb-12 07:59N 50°38' W 001°01'0 0.0
2018-Feb-12 07:29N 50°38' W 001°01'0 0.0
2018-Feb-12 06:59N 50°38' W 001°01'0 0.0
2018-Feb-12 06:29N 50°38' W 001°01'0 0.0
2018-Feb-12 05:59N 50°38' W 001°01'0 0.0
2018-Feb-12 05:29N 50°38' W 001°01'0 0.0
2018-Feb-12 05:00N 50°38' W 001°01'0 0.0
2018-Feb-12 04:30N 50°38' W 001°01'0 0.0
2018-Feb-12 03:59N 50°38' W 001°01'0 0.0
2018-Feb-12 03:29N 50°38' W 001°00'0 0.1
2018-Feb-12 02:59N 50°38' W 001°01'0 0.1
2018-Feb-12 02:30N 50°38' W 001°01'0 0.0
2018-Feb-12 01:59N 50°38' W 001°01'0 0.0
2018-Feb-12 01:29N 50°38' W 001°01'0 0.0
2018-Feb-12 00:59N 50°38' W 001°01'0 0.1
2018-Feb-12 00:30N 50°38' W 001°01'0 0.0
2018-Feb-11 23:59N 50°38' W 001°01'0 0.1
2018-Feb-11 23:29N 50°38' W 001°01'0 0.9
2018-Feb-11 23:01N 50°38' W 000°60'4 7.5
2018-Feb-11 22:30N 50°37' W 000°54'713.4
2018-Feb-11 22:00N 50°35' W 000°44'815.4
2018-Feb-11 21:30N 50°33' W 000°32'815.2
2018-Feb-11 20:58N 50°32' W 000°19'714.9
2018-Feb-11 20:30N 50°32' W 000°09'714.4
2018-Feb-11 20:00N 50°33' E 000°02'714.4
2018-Feb-11 19:30N 50°35' E 000°13'714.3
2018-Feb-11 19:00N 50°37' E 000°24'714.3
2018-Feb-11 18:31N 50°39' E 000°35'714.7
2018-Feb-11 18:00N 50°42' E 000°46'814.9
2018-Feb-11 17:30N 50°45' E 000°56'815.4
2018-Feb-11 17:00N 50°49' E 001°07'815.9
2018-Feb-11 16:30N 50°54' E 001°17'917.1
2018-Feb-11 16:01N 51°00' E 001°25'917.1
2018-Feb-11 15:30N 51°06' E 001°36'816.8
2018-Feb-11 15:00N 51°12' E 001°45'816.2
2018-Feb-11 14:30N 51°19' E 001°52'815.3
2018-Feb-11 14:00N 51°25' E 001°59'714.6
2018-Feb-11 13:30N 51°31' E 002°06'714.3
2018-Feb-11 13:01N 51°36' E 002°13'713.9
2018-Feb-11 12:30N 51°42' E 002°20'10513.8
2018-Feb-11 04:51N 53°04' E 004°09'512.8
2018-Feb-11 04:28N 53°06' E 004°16'612.4
2018-Feb-11 03:58N 53°11' E 004°23'712.1
2018-Feb-11 03:26N 53°16' E 004°30'12812.8
2018-Feb-10 17:27N 53°52' E 007°56'512.3
2018-Feb-10 17:00N 53°50' E 008°04'613.0
2018-Feb-10 16:30N 53°45' E 008°12'712.9
2018-Feb-10 16:00N 53°42' E 008°21'613.1
2018-Feb-10 15:30N 53°37' E 008°29'4 8.0
2018-Feb-10 15:00N 53°34' E 008°33'0 0.8
2018-Feb-10 14:30N 53°34' E 008°33'0 0.7
2018-Feb-10 13:59N 53°35' E 008°33'0 0.0
2018-Feb-10 13:29N 53°35' E 008°33'0 0.0
2018-Feb-10 12:56N 53°35' E 008°33'0 0.0
2018-Feb-10 12:29N 53°35' E 008°33'0 0.0
2018-Feb-10 11:59N 53°35' E 008°33'0 0.0
2018-Feb-10 11:29N 53°35' E 008°33'0 0.0
2018-Feb-10 10:59N 53°35' E 008°33'0 0.0
2018-Feb-10 10:29N 53°35' E 008°33'0 0.0
2018-Feb-10 09:59N 53°35' E 008°33'0 0.0
2018-Feb-10 09:29N 53°35' E 008°33'0 0.0
2018-Feb-10 08:59N 53°35' E 008°33'0 0.0
2018-Feb-10 08:29N 53°35' E 008°33'0 0.0
2018-Feb-10 07:59N 53°35' E 008°33'0 0.0
2018-Feb-10 07:29N 53°35' E 008°33'0 0.0
2018-Feb-10 06:59N 53°35' E 008°33'0 0.0
2018-Feb-10 06:29N 53°35' E 008°33'0 0.0
2018-Feb-10 05:59N 53°35' E 008°33'0 0.0
2018-Feb-10 05:29N 53°35' E 008°33'0 0.0
2018-Feb-10 04:59N 53°35' E 008°33'0 0.0
2018-Feb-10 04:29N 53°35' E 008°33'0 0.0
2018-Feb-10 03:59N 53°35' E 008°33'0 0.0
2018-Feb-10 03:29N 53°35' E 008°33'0 0.0
2018-Feb-10 02:59N 53°35' E 008°33'0 0.0
2018-Feb-10 02:29N 53°35' E 008°33'0 0.0
2018-Feb-10 01:59N 53°35' E 008°33'0 0.0
2018-Feb-10 01:29N 53°35' E 008°33'0 0.0
2018-Feb-10 00:59N 53°35' E 008°33'0 0.0
2018-Feb-10 00:29N 53°35' E 008°33'0 0.0
2018-Feb-09 23:59N 53°35' E 008°33'0 0.0
2018-Feb-09 23:29N 53°35' E 008°33'0 0.0
2018-Feb-09 22:59N 53°35' E 008°33'0 0.0
2018-Feb-09 22:44N 53°35' E 008°33'0 0.1
2018-Feb-09 19:00N 53°34' E 008°33'2 2.1
2018-Feb-09 18:00N 53°36' E 008°31'2214.8
2018-Feb-09 16:30N 53°50' E 008°03'18715.6
2018-Feb-09 04:30N 52°22' E 003°28'5916.8
2018-Feb-09 01:00N 51°31' E 002°42'10 9.8
2018-Feb-09 00:00N 51°25' E 002°54'13 8.4
2018-Feb-08 22:30N 51°20' E 003°13'0 0.5
2018-Feb-08 22:00N 51°20' E 003°13'2 0.1
2018-Feb-08 01:28N 51°18' E 003°14'0 0.0
2018-Feb-08 00:58N 51°18' E 003°14'0 0.0
2018-Feb-08 00:28N 51°18' E 003°14'0 0.0
2018-Feb-07 23:58N 51°18' E 003°14'0 0.0
2018-Feb-07 23:28N 51°18' E 003°14'0 0.0
2018-Feb-07 22:58N 51°18' E 003°14'0 0.0
2018-Feb-07 22:28N 51°18' E 003°14'0 0.0
2018-Feb-07 21:58N 51°18' E 003°14'0 0.0
2018-Feb-07 21:31N 51°18' E 003°14'  

Dump ship's entire track history